Time;durP1;ratioP1;P1;durP2;ratioP2;P2;SDS_P1;SDS_P2;PMS_P1;PMS_P2;Temp;Humidity;BMP_temperature;BMP_pressure;BME280_temperature;BME280_humidity;BME280_pressure;Samples;Min_cycle;Max_cycle;Signal;HPM_P1;HPM_P2
2022/09/17 00:01:42;;;;;;;5.95;5.22;;;;;;;;;;4970046;28;20048;-70
2022/09/17 00:04:09;;;;;;;5.28;4.85;;;;;;;;;;4983462;28;20158;-70
2022/09/17 00:06:37;;;;;;;8.27;5.53;;;;;;;;;;4978058;28;20410;-69
2022/09/17 00:09:05;;;;;;;7.70;5.45;;;;;;;;;;4980853;28;20474;-69
2022/09/17 00:11:34;;;;;;;5.85;5.22;;;;;;;;;;4981534;28;20045;-69
2022/09/17 00:14:02;;;;;;;6.00;5.50;;;;;;;;;;4981017;28;20442;-70
2022/09/17 00:16:31;;;;;;;6.45;5.88;;;;;;;;;;4979411;28;20048;-71
2022/09/17 00:18:59;;;;;;;6.22;5.63;;;;;;;;;;4972006;28;20038;-71
2022/09/17 00:21:27;;;;;;;6.38;5.88;;;;;;;;;;4950896;28;20096;-71
2022/09/17 00:23:58;;;;;;;6.80;6.20;;;;;;;;;;4968354;28;20050;-70
2022/09/17 00:26:26;;;;;;;7.82;5.68;;;;;;;;;;4985091;28;20042;-71
2022/09/17 00:28:55;;;;;;;7.40;6.00;;;;;;;;;;4975470;28;20053;-69
2022/09/17 00:31:22;;;;;;;6.28;5.75;;;;;;;;;;4986670;28;20138;-71
2022/09/17 00:33:50;;;;;;;5.95;5.35;;;;;;;;;;4986326;28;20049;-71
2022/09/17 00:36:19;;;;;;;6.15;5.55;;;;;;;;;;4987210;28;20968;-71
2022/09/17 00:38:50;;;;;;;5.55;4.90;;;;;;;;;;4970705;28;20144;-71
2022/09/17 00:41:18;;;;;;;6.13;5.13;;;;;;;;;;4988689;28;20046;-72
2022/09/17 00:43:47;;;;;;;5.65;5.25;;;;;;;;;;4981394;28;20050;-71
2022/09/17 00:46:17;;;;;;;6.82;5.03;;;;;;;;;;4965579;28;20045;-69
2022/09/17 00:48:44;;;;;;;9.20;4.60;;;;;;;;;;4974878;28;20042;-70
2022/09/17 00:51:13;;;;;;;5.35;4.85;;;;;;;;;;4985377;28;20120;-72
2022/09/17 00:53:41;;;;;;;5.45;5.05;;;;;;;;;;4985715;28;20046;-70
2022/09/17 00:56:29;;;;;;;5.78;5.18;;;;;;;;;;4988104;28;20046;-70
2022/09/17 00:58:56;;;;;;;5.70;5.07;;;;;;;;;;4984073;28;20034;-70
2022/09/17 01:01:23;;;;;;;5.88;5.28;;;;;;;;;;4972226;28;20077;-71
2022/09/17 01:03:51;;;;;;;5.38;4.97;;;;;;;;;;4979650;28;20050;-69
2022/09/17 01:06:33;;;;;;;5.35;4.85;;;;;;;;;;4982477;28;20049;-72
2022/09/17 01:09:10;;;;;;;7.43;5.15;;;;;;;;;;4970038;28;20514;-71
2022/09/17 01:11:56;;;;;;;5.60;5.10;;;;;;;;;;4975912;28;20055;-68
2022/09/17 01:14:29;;;;;;;4.72;4.32;;;;;;;;;;4969961;28;20058;-70
2022/09/17 01:17:07;;;;;;;6.28;4.80;;;;;;;;;;4969634;28;20050;-72
2022/09/17 01:19:34;;;;;;;4.68;4.28;;;;;;;;;;4983219;28;20050;-72
2022/09/17 01:22:24;;;;;;;5.10;4.57;;;;;;;;;;4967741;28;20084;-69
2022/09/17 01:25:11;;;;;;;5.00;4.60;;;;;;;;;;4982933;28;20511;-70
2022/09/17 01:27:41;;;;;;;4.80;4.40;;;;;;;;;;4983803;28;20058;-70
2022/09/17 01:30:20;;;;;;;4.70;4.30;;;;;;;;;;4965955;28;20348;-70
2022/09/17 01:32:51;;;;;;;4.60;4.22;;;;;;;;;;4977880;28;20042;-72
2022/09/17 01:35:31;;;;;;;4.82;4.45;;;;;;;;;;4969172;28;20056;-69
2022/09/17 01:38:06;;;;;;;4.55;4.25;;;;;;;;;;4958499;28;20046;-70
2022/09/17 01:40:40;;;;;;;7.82;4.30;;;;;;;;;;4986134;28;20043;-71
2022/09/17 01:43:12;;;;;;;4.15;3.85;;;;;;;;;;4976571;28;20046;-73
2022/09/17 01:45:39;;;;;;;4.25;3.95;;;;;;;;;;4973288;28;20049;-72
2022/09/17 01:48:10;;;;;;;4.45;4.05;;;;;;;;;;4982135;28;20064;-70
2022/09/17 01:50:40;;;;;;;3.83;3.33;;;;;;;;;;4966156;28;20042;-70
2022/09/17 01:53:09;;;;;;;3.83;3.42;;;;;;;;;;4981090;28;20042;-72
2022/09/17 01:55:38;;;;;;;3.15;2.90;;;;;;;;;;4982878;28;20485;-72
2022/09/17 01:58:11;;;;;;;3.50;3.20;;;;;;;;;;4982144;28;20044;-71
2022/09/17 02:00:41;;;;;;;2.95;2.65;;;;;;;;;;4977785;28;20057;-70
2022/09/17 02:03:18;;;;;;;2.70;2.50;;;;;;;;;;4983046;28;20049;-73
2022/09/17 02:05:55;;;;;;;3.10;2.90;;;;;;;;;;5053250;23;20049;-75
2022/09/17 02:08:27;;;;;;;2.72;2.53;;;;;;;;;;5032395;28;20059;-75
2022/09/17 02:10:54;;;;;;;4.65;2.70;;;;;;;;;;5048685;28;20052;-75
2022/09/17 02:13:24;;;;;;;2.70;2.50;;;;;;;;;;5032753;28;20091;-75
2022/09/17 02:15:57;;;;;;;2.88;2.60;;;;;;;;;;5042442;28;20052;-75
2022/09/17 02:18:29;;;;;;;2.55;2.17;;;;;;;;;;5048783;28;20040;-75
2022/09/17 02:20:56;;;;;;;;;;;;;;;;;;5030830;28;20040;-75
2022/09/17 02:23:27;;;;;;;1.73;1.63;;;;;;;;;;5034055;28;19979;-75
2022/09/17 02:26:16;;;;;;;1.70;1.60;;;;;;;;;;5046972;28;20048;-77
2022/09/17 02:28:47;;;;;;;1.90;1.70;;;;;;;;;;5030248;28;20537;-77
2022/09/17 02:31:15;;;;;;;3.70;1.83;;;;;;;;;;5048444;28;20067;-77
2022/09/17 02:33:44;;;;;;;1.50;1.40;;;;;;;;;;5036092;28;20059;-77
2022/09/17 02:36:12;;;;;;;3.50;1.60;;;;;;;;;;5047464;28;20114;-78
2022/09/17 02:38:43;;;;;;;2.83;1.60;;;;;;;;;;5013324;28;20140;-77
2022/09/17 02:41:13;;;;;;;1.20;1.20;;;;;;;;;;5047266;28;20114;-77
2022/09/17 02:44:00;;;;;;;1.48;1.33;;;;;;;;;;5047198;28;20481;-78
2022/09/17 02:46:52;;;;;;;2.58;1.50;;;;;;;;;;5047291;28;20052;-77
2022/09/17 02:49:29;;;;;;;1.58;1.40;;;;;;;;;;5035470;28;20067;-77
2022/09/17 02:52:20;;;;;;;2.25;1.67;;;;;;;;;;5045027;28;20124;-77
2022/09/17 02:55:06;;;;;;;2.20;1.50;;;;;;;;;;5014447;28;20529;-77
2022/09/17 02:57:37;;;;;;;2.67;1.20;;;;;;;;;;5026433;28;20184;-78
2022/09/17 03:00:18;;;;;;;1.48;1.38;;;;;;;;;;5003445;28;20090;-78
2022/09/17 03:02:51;;;;;;;3.50;1.60;;;;;;;;;;5034171;28;20041;-77
2022/09/17 03:05:21;;;;;;;1.40;1.23;;;;;;;;;;5046132;28;20048;-77
2022/09/17 03:07:48;;;;;;;1.65;1.33;;;;;;;;;;5015875;28;20406;-77
2022/09/17 03:10:16;;;;;;;1.35;1.33;;;;;;;;;;5037653;28;20040;-78
2022/09/17 03:12:43;;;;;;;1.70;1.60;;;;;;;;;;5011839;28;20077;-77
2022/09/17 03:15:11;;;;;;;2.03;1.60;;;;;;;;;;5029854;28;20525;-77
2022/09/17 03:17:38;;;;;;;1.85;1.65;;;;;;;;;;5046550;28;20131;-77
2022/09/17 03:20:06;;;;;;;1.50;1.40;;;;;;;;;;5018576;28;20044;-77
2022/09/17 03:22:34;;;;;;;1.83;1.67;;;;;;;;;;5046642;28;20179;-77
2022/09/17 03:25:01;;;;;;;3.80;1.60;;;;;;;;;;5037323;28;20083;-77
2022/09/17 03:27:29;;;;;;;1.88;1.33;;;;;;;;;;5008198;28;20033;-78
2022/09/17 03:29:56;;;;;;;1.65;1.55;;;;;;;;;;5046427;28;20045;-77
2022/09/17 03:32:23;;;;;;;1.55;1.45;;;;;;;;;;5027234;28;20482;-78
2022/09/17 03:34:50;;;;;;;1.55;1.45;;;;;;;;;;5035734;28;20080;-78
2022/09/17 03:37:17;;;;;;;1.45;1.40;;;;;;;;;;5044754;28;20037;-77
2022/09/17 03:39:45;;;;;;;2.45;1.60;;;;;;;;;;5046533;28;20033;-78
2022/09/17 03:42:12;;;;;;;1.73;1.63;;;;;;;;;;5033654;28;20076;-78
2022/09/17 03:44:39;;;;;;;1.65;1.60;;;;;;;;;;5045737;28;20065;-78
2022/09/17 03:47:11;;;;;;;1.58;1.48;;;;;;;;;;5046318;28;20350;-78
2022/09/17 03:49:38;;;;;;;1.55;1.45;;;;;;;;;;5046622;28;20091;-77
2022/09/17 03:52:06;;;;;;;1.52;1.42;;;;;;;;;;5037355;28;20114;-77
2022/09/17 03:54:33;;;;;;;1.73;1.60;;;;;;;;;;5029065;28;20472;-77
2022/09/17 03:57:00;;;;;;;1.60;1.50;;;;;;;;;;5044016;28;20051;-77
2022/09/17 03:59:28;;;;;;;1.95;1.60;;;;;;;;;;5017269;28;20087;-78
2022/09/17 04:01:56;;;;;;;3.90;1.60;;;;;;;;;;5046018;28;20053;-77
2022/09/17 04:04:24;;;;;;;1.73;1.60;;;;;;;;;;5044301;28;20424;-77
2022/09/17 04:06:51;;;;;;;1.60;1.50;;;;;;;;;;5029378;28;20124;-77
2022/09/17 04:09:18;;;;;;;1.55;1.20;;;;;;;;;;5045108;28;20049;-77
2022/09/17 04:11:46;;;;;;;1.73;1.63;;;;;;;;;;5045356;28;20115;-78
2022/09/17 04:14:13;;;;;;;2.40;1.35;;;;;;;;;;5034181;28;20876;-77
2022/09/17 04:16:40;;;;;;;2.28;1.60;;;;;;;;;;5045939;28;20047;-78
2022/09/17 04:19:08;;;;;;;3.83;1.95;;;;;;;;;;5016754;28;20045;-77
2022/09/17 04:21:35;;;;;;;1.70;1.30;;;;;;;;;;5038330;28;20318;-77
2022/09/17 04:24:02;;;;;;;1.65;1.30;;;;;;;;;;5030113;28;20116;-77
2022/09/17 04:26:29;;;;;;;4.18;1.75;;;;;;;;;;5026800;28;20052;-77
2022/09/17 04:28:57;;;;;;;1.98;1.50;;;;;;;;;;5038279;28;20029;-77
2022/09/17 04:31:25;;;;;;;1.83;1.50;;;;;;;;;;5023378;28;20091;-77
2022/09/17 04:33:53;;;;;;;1.23;1.23;;;;;;;;;;5041036;28;20083;-78
2022/09/17 04:36:20;;;;;;;1.73;1.63;;;;;;;;;;5059109;28;20057;-78
2022/09/17 04:38:48;;;;;;;1.48;1.38;;;;;;;;;;5061341;28;20072;-78
2022/09/17 04:41:15;;;;;;;1.50;1.35;;;;;;;;;;5050554;28;20063;-77
2022/09/17 04:43:42;;;;;;;1.42;1.30;;;;;;;;;;5049083;28;20041;-79
2022/09/17 04:46:10;;;;;;;2.78;1.35;;;;;;;;;;5059012;28;20048;-77
2022/09/17 04:48:37;;;;;;;2.25;1.70;;;;;;;;;;5061186;28;20061;-77
2022/09/17 04:51:04;;;;;;;1.45;1.35;;;;;;;;;;5045909;28;20037;-77
2022/09/17 04:53:32;;;;;;;1.20;1.10;;;;;;;;;;5045374;28;20508;-76
2022/09/17 04:55:59;;;;;;;1.85;1.40;;;;;;;;;;5042976;28;20084;-76
2022/09/17 04:58:26;;;;;;;1.63;1.45;;;;;;;;;;5027107;28;20086;-77
2022/09/17 05:00:53;;;;;;;4.70;1.95;;;;;;;;;;5037603;28;20037;-78
2022/09/17 05:03:21;;;;;;;2.05;1.63;;;;;;;;;;5046694;28;20044;-82
2022/09/17 05:05:48;;;;;;;2.10;1.90;;;;;;;;;;5031776;28;20517;-77
2022/09/17 05:08:15;;;;;;;1.65;1.40;;;;;;;;;;5029287;28;20489;-78
2022/09/17 05:10:43;;;;;;;2.67;1.80;;;;;;;;;;5048996;28;20037;-77
2022/09/17 05:13:10;;;;;;;1.40;1.30;;;;;;;;;;5032319;28;20681;-76
2022/09/17 05:15:37;;;;;;;1.75;1.55;;;;;;;;;;5048577;28;20090;-77
2022/09/17 05:18:04;;;;;;;2.13;1.40;;;;;;;;;;5049193;28;20061;-76
2022/09/17 05:20:32;;;;;;;1.80;1.70;;;;;;;;;;5038108;28;20037;-78
2022/09/17 05:22:59;;;;;;;2.70;1.50;;;;;;;;;;5023850;28;20079;-77
2022/09/17 05:25:26;;;;;;;2.15;1.70;;;;;;;;;;5040035;28;20041;-77
2022/09/17 05:27:55;;;;;;;3.10;1.73;;;;;;;;;;5048077;28;20120;-77
2022/09/17 05:30:22;;;;;;;4.50;1.55;;;;;;;;;;5047954;28;20076;-77
2022/09/17 05:32:57;;;;;;;1.50;1.40;;;;;;;;;;5033866;28;20044;-77
2022/09/17 05:35:25;;;;;;;2.15;1.33;;;;;;;;;;5046074;28;20490;-78
2022/09/17 05:37:55;;;;;;;1.50;1.40;;;;;;;;;;5029417;28;20464;-77
2022/09/17 05:40:23;;;;;;;3.08;1.60;;;;;;;;;;5039986;28;20045;-77
2022/09/17 05:42:50;;;;;;;1.50;1.40;;;;;;;;;;5030208;28;20177;-77
2022/09/17 05:45:17;;;;;;;1.08;0.90;;;;;;;;;;5033626;28;20037;-78
2022/09/17 05:47:44;;;;;;;2.88;1.17;;;;;;;;;;5024516;28;20048;-77
2022/09/17 05:50:12;;;;;;;3.22;1.20;;;;;;;;;;5037596;28;20044;-78
2022/09/17 05:52:39;;;;;;;4.50;1.25;;;;;;;;;;5027715;28;20595;-77
2022/09/17 05:55:07;;;;;;;2.05;1.40;;;;;;;;;;5033869;28;20105;-77
2022/09/17 05:57:34;;;;;;;2.47;1.40;;;;;;;;;;5035033;28;20084;-78
2022/09/17 06:00:02;;;;;;;1.25;1.15;;;;;;;;;;5031756;28;20037;-77
2022/09/17 06:02:38;;;;;;;5.10;2.50;;;;;;;;;;5038989;28;20040;-78
2022/09/17 06:05:06;;;;;;;3.42;1.70;;;;;;;;;;5037822;28;20040;-78
2022/09/17 06:07:37;;;;;;;3.50;1.38;;;;;;;;;;5046774;28;20043;-78
2022/09/17 06:10:05;;;;;;;3.95;1.60;;;;;;;;;;5046572;28;20128;-79
2022/09/17 06:12:34;;;;;;;3.17;1.60;;;;;;;;;;5048173;28;20544;-78
2022/09/17 06:15:02;;;;;;;3.05;1.58;;;;;;;;;;5045777;28;20506;-77
2022/09/17 06:17:32;;;;;;;4.13;1.40;;;;;;;;;;5045512;28;20502;-78
2022/09/17 06:19:59;;;;;;;1.75;1.40;;;;;;;;;;5046437;28;20091;-78
2022/09/17 06:22:27;;;;;;;2.15;1.50;;;;;;;;;;5044956;28;20036;-76
2022/09/17 06:24:54;;;;;;;2.80;1.40;;;;;;;;;;5047519;28;20033;-77
2022/09/17 06:27:21;;;;;;;3.45;1.58;;;;;;;;;;5046061;28;20069;-79
2022/09/17 06:29:49;;;;;;;2.20;1.20;;;;;;;;;;5045608;28;20040;-78
2022/09/17 06:32:16;;;;;;;3.25;1.50;;;;;;;;;;5048013;28;20127;-79
2022/09/17 06:34:43;;;;;;;2.05;1.48;;;;;;;;;;5045731;28;20149;-77
2022/09/17 06:37:10;;;;;;;2.95;2.25;;;;;;;;;;5047242;28;20148;-79
2022/09/17 06:39:38;;;;;;;1.48;1.27;;;;;;;;;;5048400;28;20068;-78
2022/09/17 06:42:06;;;;;;;3.03;1.35;;;;;;;;;;5035520;28;20104;-77
2022/09/17 06:44:33;;;;;;;2.35;1.77;;;;;;;;;;5040292;28;20032;-77
2022/09/17 06:47:00;;;;;;;2.35;1.60;;;;;;;;;;5042154;28;20371;-77
2022/09/17 06:49:29;;;;;;;2.55;1.42;;;;;;;;;;5028329;28;20120;-77
2022/09/17 06:51:57;;;;;;;2.88;1.67;;;;;;;;;;5052553;28;20131;-78
2022/09/17 06:54:24;;;;;;;5.53;1.67;;;;;;;;;;5043960;28;20046;-78
2022/09/17 06:56:52;;;;;;;4.22;2.42;;;;;;;;;;5052113;28;20139;-77
2022/09/17 06:59:19;;;;;;;5.55;1.70;;;;;;;;;;5050936;28;20046;-77
2022/09/17 07:01:47;;;;;;;2.67;1.70;;;;;;;;;;5045369;28;20071;-77
2022/09/17 07:04:16;;;;;;;2.78;1.65;;;;;;;;;;5050183;28;20063;-77
2022/09/17 07:06:43;;;;;;;4.25;1.70;;;;;;;;;;5046832;28;20095;-76
2022/09/17 07:09:11;;;;;;;1.90;1.60;;;;;;;;;;5047885;28;20474;-78
2022/09/17 07:11:39;;;;;;;1.92;1.65;;;;;;;;;;5049130;28;20102;-77
2022/09/17 07:14:06;;;;;;;2.58;1.55;;;;;;;;;;5049173;28;20359;-78
2022/09/17 07:16:35;;;;;;;1.73;1.52;;;;;;;;;;5047471;28;20110;-78
2022/09/17 07:19:03;;;;;;;2.13;1.55;;;;;;;;;;5046705;28;20040;-77
2022/09/17 07:21:30;;;;;;;3.78;1.40;;;;;;;;;;5045245;28;20079;-79
2022/09/17 07:23:58;;;;;;;3.35;1.60;;;;;;;;;;5044831;28;20037;-76
2022/09/17 07:26:25;;;;;;;2.80;1.58;;;;;;;;;;5044755;28;20044;-79
2022/09/17 07:28:52;;;;;;;1.55;1.45;;;;;;;;;;5046628;28;20262;-78
2022/09/17 07:31:20;;;;;;;3.20;1.70;;;;;;;;;;5047555;28;20048;-78
2022/09/17 07:33:47;;;;;;;2.40;1.63;;;;;;;;;;5046605;28;20040;-79
2022/09/17 07:36:16;;;;;;;3.20;1.92;;;;;;;;;;5045923;28;20041;-78
2022/09/17 07:38:44;;;;;;;2.13;1.80;;;;;;;;;;5031689;28;20098;-78
2022/09/17 07:41:18;;;;;;;1.60;1.50;;;;;;;;;;5047197;28;20045;-77
2022/09/17 07:43:45;;;;;;;1.77;1.63;;;;;;;;;;5041763;28;20390;-77
2022/09/17 07:46:14;;;;;;;4.57;1.98;;;;;;;;;;5028455;28;20041;-76
2022/09/17 07:48:41;;;;;;;2.15;1.73;;;;;;;;;;5047946;28;20119;-76
2022/09/17 07:51:14;;;;;;;4.22;1.83;;;;;;;;;;5047553;28;20469;-78
2022/09/17 07:53:42;;;;;;;2.08;1.63;;;;;;;;;;5049343;28;20586;-76
2022/09/17 07:56:09;;;;;;;4.38;1.58;;;;;;;;;;5044379;28;20045;-77
2022/09/17 07:58:38;;;;;;;1.65;1.42;;;;;;;;;;5032442;28;20691;-77
2022/09/17 08:01:07;;;;;;;1.77;1.30;;;;;;;;;;5041519;28;20064;-77
2022/09/17 08:03:38;;;;;;;4.97;1.50;;;;;;;;;;5043052;28;20037;-78
2022/09/17 08:06:07;;;;;;;2.45;1.63;;;;;;;;;;5097955;22;20050;-68
2022/09/17 08:08:34;;;;;;;1.40;1.30;;;;;;;;;;5020680;28;20115;-67
2022/09/17 08:11:02;;;;;;;3.53;1.50;;;;;;;;;;5025761;28;20032;-67
2022/09/17 08:13:30;;;;;;;3.47;1.10;;;;;;;;;;5039667;28;20493;-67
2022/09/17 08:15:58;;;;;;;2.75;1.75;;;;;;;;;;5038250;28;20044;-67
2022/09/17 08:18:26;;;;;;;2.33;1.30;;;;;;;;;;5038160;28;20056;-67
2022/09/17 08:21:00;;;;;;;2.90;1.63;;;;;;;;;;5033813;28;20045;-67
2022/09/17 08:23:28;;;;;;;4.70;1.48;;;;;;;;;;5038343;28;20059;-66
2022/09/17 08:25:56;;;;;;;3.17;1.30;;;;;;;;;;5033193;28;20552;-66
2022/09/17 08:28:24;;;;;;;3.60;1.40;;;;;;;;;;5035646;28;20061;-66
2022/09/17 08:30:52;;;;;;;3.05;1.60;;;;;;;;;;5036818;28;20214;-67
2022/09/17 08:33:20;;;;;;;2.08;1.30;;;;;;;;;;5036389;28;20052;-66
2022/09/17 08:35:54;;;;;;;5.13;2.88;;;;;;;;;;5036830;28;20119;-68
2022/09/17 08:38:21;;;;;;;4.65;2.33;;;;;;;;;;5041142;28;20048;-69
2022/09/17 08:41:08;;;;;;;3.17;1.10;;;;;;;;;;5033862;28;20041;-66
2022/09/17 08:43:38;;;;;;;6.60;1.58;;;;;;;;;;5035863;28;20044;-68
2022/09/17 08:46:08;;;;;;;3.25;1.30;;;;;;;;;;5041242;28;20048;-66
2022/09/17 08:48:44;;;;;;;2.38;1.38;;;;;;;;;;5043743;28;20033;-67
2022/09/17 08:51:24;;;;;;;2.50;1.17;;;;;;;;;;5041408;28;20048;-67
2022/09/17 08:54:11;;;;;;;3.25;1.50;;;;;;;;;;5030930;28;20060;-68
2022/09/17 08:56:40;;;;;;;2.83;1.60;;;;;;;;;;5035630;28;20175;-69
2022/09/17 08:59:16;;;;;;;4.40;1.50;;;;;;;;;;5037199;28;20064;-67
2022/09/17 09:01:54;;;;;;;4.55;1.33;;;;;;;;;;5042749;28;20048;-67
2022/09/17 09:04:28;;;;;;;1.88;1.55;;;;;;;;;;5039740;28;20068;-68
2022/09/17 09:07:02;;;;;;;1.80;1.20;;;;;;;;;;5031275;28;20564;-69
2022/09/17 09:09:34;;;;;;;2.53;1.30;;;;;;;;;;5037163;28;20404;-68
2022/09/17 09:12:04;;;;;;;2.95;1.13;;;;;;;;;;5036547;28;20754;-67
2022/09/17 09:14:35;;;;;;;2.67;1.20;;;;;;;;;;5030896;28;20048;-67
2022/09/17 09:17:05;;;;;;;5.50;1.38;;;;;;;;;;5046263;28;20901;-67
2022/09/17 09:19:46;;;;;;;3.17;1.55;;;;;;;;;;5045649;28;20052;-66
2022/09/17 09:22:32;;;;;;;1.35;1.20;;;;;;;;;;5029072;28;20428;-67
2022/09/17 09:24:59;;;;;;;1.02;0.90;;;;;;;;;;5035491;28;20523;-66
2022/09/17 09:27:35;;;;;;;1.52;0.90;;;;;;;;;;5043816;28;20110;-67
2022/09/17 09:30:05;;;;;;;2.30;0.80;;;;;;;;;;5031005;28;20044;-66
2022/09/17 09:32:45;;;;;;;3.40;0.90;;;;;;;;;;5019019;28;20048;-67
2022/09/17 09:35:20;;;;;;;3.40;1.08;;;;;;;;;;4997576;28;20045;-67
2022/09/17 09:38:06;;;;;;;3.65;1.08;;;;;;;;;;5041588;28;20099;-68
2022/09/17 09:40:36;;;;;;;1.60;0.90;;;;;;;;;;5037861;28;20051;-67
2022/09/17 09:43:11;;;;;;;2.17;1.20;;;;;;;;;;5047005;28;20460;-67
2022/09/17 09:45:49;;;;;;;1.13;0.88;;;;;;;;;;5037983;28;20044;-67
2022/09/17 09:48:22;;;;;;;4.32;0.90;;;;;;;;;;5039686;28;20045;-67
2022/09/17 09:50:55;;;;;;;1.40;0.80;;;;;;;;;;5040710;28;20052;-68
2022/09/17 09:53:33;;;;;;;2.60;0.90;;;;;;;;;;5040735;28;20365;-68
2022/09/17 09:56:12;;;;;;;2.55;1.10;;;;;;;;;;5035424;28;20072;-66
2022/09/17 09:58:40;;;;;;;1.55;1.10;;;;;;;;;;5037894;28;20115;-68
2022/09/17 10:01:12;;;;;;;3.38;1.23;;;;;;;;;;5021465;28;20567;-67
2022/09/17 10:03:41;;;;;;;2.85;1.13;;;;;;;;;;5041270;28;20040;-69
2022/09/17 10:06:10;;;;;;;1.75;1.00;;;;;;;;;;5032411;28;20069;-68
2022/09/17 10:08:39;;;;;;;2.20;1.10;;;;;;;;;;5030976;28;20072;-67
2022/09/17 10:11:06;;;;;;;1.75;1.02;;;;;;;;;;5020240;28;20417;-67
2022/09/17 10:13:34;;;;;;;1.48;0.77;;;;;;;;;;5020174;28;20041;-68
2022/09/17 10:16:15;;;;;;;3.35;0.65;;;;;;;;;;5031756;28;20295;-67
2022/09/17 10:18:43;;;;;;;1.65;0.80;;;;;;;;;;5034211;28;20056;-68
2022/09/17 10:21:30;;;;;;;1.25;0.70;;;;;;;;;;5022024;28;20286;-68
2022/09/17 10:23:58;;;;;;;1.50;0.70;;;;;;;;;;5037021;28;20500;-68
2022/09/17 10:26:28;;;;;;;1.10;0.50;;;;;;;;;;5022143;28;20634;-68
2022/09/17 10:28:56;;;;;;;0.77;0.52;;;;;;;;;;5029041;28;20052;-68
2022/09/17 10:31:24;;;;;;;1.63;0.70;;;;;;;;;;5042488;28;20473;-68
2022/09/17 10:33:52;;;;;;;1.63;0.82;;;;;;;;;;5043000;28;20119;-69
2022/09/17 10:36:40;;;;;;;0.70;0.50;;;;;;;;;;5041681;28;20045;-68
2022/09/17 10:39:19;;;;;;;1.00;0.60;;;;;;;;;;5034175;28;20037;-69
2022/09/17 10:41:57;;;;;;;0.82;0.50;;;;;;;;;;5038264;28;20087;-69
2022/09/17 10:44:28;;;;;;;0.30;0.30;;;;;;;;;;5025921;28;20053;-70
2022/09/17 10:47:01;;;;;;;0.50;0.50;;;;;;;;;;5042171;28;20049;-67
2022/09/17 10:49:35;;;;;;;0.55;0.38;;;;;;;;;;5028971;28;20120;-66
2022/09/17 10:52:05;;;;;;;0.50;0.30;;;;;;;;;;5029518;28;20049;-68
2022/09/17 10:54:39;;;;;;;1.05;0.30;;;;;;;;;;5025535;28;20044;-68
2022/09/17 10:57:07;;;;;;;0.77;0.40;;;;;;;;;;5032115;28;20045;-66
2022/09/17 10:59:40;;;;;;;1.88;0.60;;;;;;;;;;5033723;28;20102;-68
2022/09/17 11:02:22;;;;;;;0.50;0.40;;;;;;;;;;5035236;28;20040;-67
2022/09/17 11:05:09;;;;;;;1.40;0.50;;;;;;;;;;5033793;28;20528;-67
2022/09/17 11:07:43;;;;;;;0.30;0.30;;;;;;;;;;5031911;28;20312;-69
2022/09/17 11:10:10;;;;;;;0.30;0.30;;;;;;;;;;5028383;28;20045;-68
2022/09/17 11:12:40;;;;;;;0.80;0.40;;;;;;;;;;5038056;28;20111;-68
2022/09/17 11:15:22;;;;;;;3.22;2.90;;;;;;;;;;5035486;28;20059;-68
2022/09/17 11:18:08;;;;;;;0.32;0.30;;;;;;;;;;5021177;28;20413;-69
2022/09/17 11:20:35;;;;;;;0.40;0.40;;;;;;;;;;5032150;28;20341;-67
2022/09/17 11:23:23;;;;;;;0.40;0.40;;;;;;;;;;5031380;28;20072;-67
2022/09/17 11:25:53;;;;;;;0.30;0.30;;;;;;;;;;5037696;28;20037;-68
2022/09/17 11:28:44;;;;;;;0.32;0.30;;;;;;;;;;5038712;28;20124;-70
2022/09/17 11:31:29;;;;;;;10.65;9.65;;;;;;;;;;5034680;28;20535;-67
2022/09/17 11:33:59;;;;;;;2.13;1.25;;;;;;;;;;5036076;28;20064;-67
2022/09/17 11:36:49;;;;;;;1.58;0.60;;;;;;;;;;5020101;28;20045;-66
2022/09/17 11:39:20;;;;;;;1.70;1.60;;;;;;;;;;5025688;28;20045;-68
2022/09/17 11:41:51;;;;;;;0.40;0.40;;;;;;;;;;5035100;28;20049;-68
2022/09/17 11:44:24;;;;;;;0.93;0.60;;;;;;;;;;5032488;28;20291;-68
2022/09/17 11:46:54;;;;;;;0.63;0.60;;;;;;;;;;5028280;28;20152;-69
2022/09/17 11:49:44;;;;;;;1.38;0.63;;;;;;;;;;5038628;28;20045;-67
2022/09/17 11:52:15;;;;;;;2.40;0.55;;;;;;;;;;5035736;28;20072;-67
2022/09/17 11:54:49;;;;;;;0.70;0.70;;;;;;;;;;5025058;28;20484;-69
2022/09/17 11:57:19;;;;;;;2.58;1.63;;;;;;;;;;5032902;28;20531;-67
2022/09/17 11:59:52;;;;;;;0.40;0.40;;;;;;;;;;5038037;28;20055;-70
2022/09/17 12:02:26;;;;;;;1.73;1.60;;;;;;;;;;5035755;28;20052;-66
2022/09/17 12:05:12;;;;;;;1.02;0.70;;;;;;;;;;5031995;28;20098;-69
2022/09/17 12:07:54;;;;;;;1.25;1.02;;;;;;;;;;5042289;28;20045;-67
2022/09/17 12:10:36;;;;;;;1.63;1.10;;;;;;;;;;5044077;28;20586;-68
2022/09/17 12:13:03;;;;;;;;;;;;;;;;;;5040143;28;20052;-68
2022/09/17 12:15:33;;;;;;;1.23;0.80;;;;;;;;;;5041560;28;19998;-66
2022/09/17 12:18:15;;;;;;;1.30;0.80;;;;;;;;;;5033745;28;20051;-66
2022/09/17 12:21:01;;;;;;;1.33;0.80;;;;;;;;;;5036339;28;20404;-71
2022/09/17 12:23:37;;;;;;;1.95;0.90;;;;;;;;;;5042032;28;20033;-70
2022/09/17 12:26:04;;;;;;;0.93;0.93;;;;;;;;;;5026792;28;20033;-71
2022/09/17 12:28:42;;;;;;;1.75;1.13;;;;;;;;;;5033059;28;20048;-68
2022/09/17 12:31:38;;;;;;;1.27;1.17;;;;;;;;;;5042171;28;20049;-68
2022/09/17 12:34:23;;;;;;;2.08;1.40;;;;;;;;;;4969441;28;20054;-68
2022/09/17 12:36:51;;;;;;;1.25;1.02;;;;;;;;;;5042078;28;20203;-68
2022/09/17 12:39:29;;;;;;;1.20;0.90;;;;;;;;;;5029721;28;20037;-71
2022/09/17 12:41:57;;;;;;;1.85;1.10;;;;;;;;;;5011967;28;20036;-67
2022/09/17 12:44:34;;;;;;;2.55;1.52;;;;;;;;;;5046184;28;20029;-67
2022/09/17 12:47:16;;;;;;;1.83;1.20;;;;;;;;;;5048545;28;20037;-67
2022/09/17 12:49:43;;;;;;;;;;;;;;;;;;5047378;28;20501;-67
2022/09/17 12:52:10;;;;;;;1.60;1.00;;;;;;;;;;5044690;28;19924;-66
2022/09/17 12:54:51;;;;;;;1.52;1.10;;;;;;;;;;5047047;28;20527;-67
2022/09/17 12:57:35;;;;;;;2.53;1.90;;;;;;;;;;5040982;28;20041;-68
2022/09/17 13:00:05;;;;;;;2.05;1.27;;;;;;;;;;5038010;28;20045;-66
2022/09/17 13:02:43;;;;;;;1.67;1.05;;;;;;;;;;5045852;28;20120;-67
2022/09/17 13:05:14;;;;;;;3.40;1.50;;;;;;;;;;5021734;28;20041;-66
2022/09/17 13:07:51;;;;;;;4.03;1.45;;;;;;;;;;5038235;28;20135;-66
2022/09/17 13:10:36;;;;;;;1.30;1.15;;;;;;;;;;5044544;28;20459;-69
2022/09/17 13:13:04;;;;;;;3.95;1.55;;;;;;;;;;5039347;28;20509;-66
2022/09/17 13:15:54;;;;;;;1.60;1.27;;;;;;;;;;5042401;28;20052;-66
2022/09/17 13:18:39;;;;;;;1.95;1.50;;;;;;;;;;5044047;28;20060;-68
2022/09/17 13:21:21;;;;;;;2.83;1.90;;;;;;;;;;5035971;28;20045;-68
2022/09/17 13:23:49;;;;;;;3.22;1.70;;;;;;;;;;5038287;28;20502;-67
2022/09/17 13:26:20;;;;;;;5.22;1.50;;;;;;;;;;5038012;28;20092;-67
2022/09/17 13:28:48;;;;;;;1.95;1.80;;;;;;;;;;5026688;28;20090;-67
2022/09/17 13:31:40;;;;;;;3.97;1.60;;;;;;;;;;5008084;28;20055;-67
2022/09/17 13:34:08;;;;;;;;;;;;;;;;;;5042248;28;20128;-70
2022/09/17 13:36:37;;;;;;;2.45;1.60;;;;;;;;;;5042813;28;20366;-71
2022/09/17 13:39:06;;;;;;;3.38;1.50;;;;;;;;;;5025137;28;20040;-70
2022/09/17 13:41:41;;;;;;;1.50;1.23;;;;;;;;;;5043121;28;20037;-71
2022/09/17 13:44:11;;;;;;;3.05;1.45;;;;;;;;;;5045729;28;20043;-70
2022/09/17 13:46:39;;;;;;;3.15;1.90;;;;;;;;;;5044571;28;20055;-70
2022/09/17 13:49:13;;;;;;;4.03;1.42;;;;;;;;;;5026965;28;20083;-70
2022/09/17 13:51:40;;;;;;;5.18;1.40;;;;;;;;;;5039125;28;20045;-70
2022/09/17 13:54:09;;;;;;;3.25;1.70;;;;;;;;;;5042236;28;20504;-71
2022/09/17 13:56:51;;;;;;;2.83;1.52;;;;;;;;;;5039375;28;20056;-70
2022/09/17 13:59:24;;;;;;;4.32;1.98;;;;;;;;;;5039256;28;20054;-71
2022/09/17 14:01:56;;;;;;;1.88;1.77;;;;;;;;;;5039278;28;20385;-71
2022/09/17 14:04:40;;;;;;;6.57;1.65;;;;;;;;;;5037213;28;20071;-71
2022/09/17 14:07:25;;;;;;;4.32;1.55;;;;;;;;;;5049558;28;20051;-82
2022/09/17 14:09:57;;;;;;;7.63;1.80;;;;;;;;;;5031040;28;20535;-82
2022/09/17 14:12:44;;;;;;;4.28;1.70;;;;;;;;;;5033285;28;20080;-81
2022/09/17 14:15:38;;;;;;;4.13;1.70;;;;;;;;;;5016195;28;20475;-83
2022/09/17 14:18:29;;;;;;;4.78;1.70;;;;;;;;;;5022583;28;20052;-81
2022/09/17 14:21:08;;;;;;;5.03;1.70;;;;;;;;;;5018773;28;20087;-82
2022/09/17 14:23:42;;;;;;;5.05;1.77;;;;;;;;;;5045387;28;20043;-82
2022/09/17 14:26:13;;;;;;;5.40;2.05;;;;;;;;;;5029777;28;20144;-82
2022/09/17 14:28:48;;;;;;;3.20;1.90;;;;;;;;;;5026208;28;20049;-82
2022/09/17 14:31:18;;;;;;;10.07;2.42;;;;;;;;;;5043692;28;20120;-83
2022/09/17 14:33:46;;;;;;;4.05;2.30;;;;;;;;;;5045706;28;20131;-83
2022/09/17 14:36:19;;;;;;;7.97;1.50;;;;;;;;;;5030970;28;20635;-83
2022/09/17 14:38:56;;;;;;;3.05;1.30;;;;;;;;;;5012368;28;20106;-83
2022/09/17 14:41:35;;;;;;;3.45;1.55;;;;;;;;;;5032324;28;20037;-81
2022/09/17 14:44:07;;;;;;;4.18;1.52;;;;;;;;;;5033475;28;20087;-82
2022/09/17 14:46:37;;;;;;;5.60;1.85;;;;;;;;;;5016908;28;20578;-81
2022/09/17 14:49:15;;;;;;;2.70;1.50;;;;;;;;;;5046469;28;20125;-83
2022/09/17 14:51:42;;;;;;;7.93;3.70;;;;;;;;;;5045878;28;20408;-83
2022/09/17 14:54:16;;;;;;;5.85;1.90;;;;;;;;;;5033490;28;20041;-82
2022/09/17 14:56:46;;;;;;;5.28;1.92;;;;;;;;;;5028302;28;20033;-83
2022/09/17 14:59:40;;;;;;;4.00;1.60;;;;;;;;;;5019314;28;20036;-82
2022/09/17 15:02:22;;;;;;;4.68;1.73;;;;;;;;;;5038312;28;20053;-82
2022/09/17 15:04:50;;;;;;;3.00;1.50;;;;;;;;;;5013791;28;20045;-83
2022/09/17 15:07:21;;;;;;;5.03;1.30;;;;;;;;;;5046229;28;20040;-82
2022/09/17 15:09:51;;;;;;;4.07;1.40;;;;;;;;;;5042950;28;20043;-83
2022/09/17 15:12:20;;;;;;;8.80;1.90;;;;;;;;;;5041235;28;20133;-81